Ridgeland, SC (29936)

10:50 AM EDT on August 25, 2016 (GMT -0400)
1 Mi. West of Great Swamp Baptist Church | | Change Station

Elev 59 ft 32.50 °N, 81.04 °W | Updated 2 minutes ago

Partly Cloudy
Partly Cloudy
85.1 °F
Feels Like 89 °F
N
2.0
Wind Variable Wind from West
Gusts 4.0 mph

Today
High -- | Low -- °F
--% Chance of Precip.
Yesterday
High -- | Low -- °F
Precip. -- in
Pressure 30.18 in
Visibility 10.0 miles
Clouds Few 25000 ft
Heat Index 89 °F
Dew Point 68 °F
Humidity 57%
Rainfall 0.00 in
Snow Depth Not available.
6:54 AM 7:56 PM
Last Quarter, 45% visible
METAR KNBC 251356Z 02010KT 10SM FEW250 28/21 A3017 RMK AO2 SLP218 T02780206
Pressure 30.18 in
Visibility 10.0 miles
Clouds Few 25000 ft
Heat Index 89 °F
Dew Point 68 °F
Humidity 57%
Rainfall 0.00 in
Snow Depth Not available.
6:54 AM 7:56 PM
Last Quarter, 45% visible
METAR KNBC 251356Z 02010KT 10SM FEW250 28/21 A3017 RMK AO2 SLP218 T02780206

10-Day Weather Forecast

Almanac

Astronomy

Aug. 25, 2016 Rise Set
Actual Time
Civil Twilight
Nautical Twilight
Astronomical Twilight
Moon
Length of Visible Light
Length of Day
Tomorrow will be .
, % of the Moon is Illuminated

Today's Extremes

State Highs State Lows

Community

WunderPhotos

Upload Photos

1,934,850 photos uploaded!

WunderBlog® & News

Nearby

Air Quality

  Air Quality AQ Index Pollutant
Not available.

Snow Depth

Station Depth Elevation

Earthquake Activity

City Distance Mag. Time & Date
Minimum magnitude displayed is 2.5.

Coastal Water Temperatures

Place Temperature

Stations

Nearby Weather Stations

Station Location Temp. Windchill Dew Point Humidity Wind Precip. Elev Updated Type
                   

Watches & Warnings

There are currently no watches in effect.